^^
Station Historical Data
Daily Summary for January 22, 2018 Units:  English    Metric   Both
« Previous Day
Next Day »
Daily Weekly Monthly Yearly Custom
  High: Low: Average:
Temperature: TemperatureF °F 55.9 °F 68.7 °F
Dew Point: DewpointF °F 55.9 °F 61.6 °F
Humidity: Humidity% 52% 81%
Wind Speed: WindSpeedMPHmph 0.0mph 0mph
Wind Gust: WindSpeedGustMPHmph - -
Wind- - North
Pressure: PressureIn in 30.03 in -
Precipitation: 0.00 in    
Historical Graphs
 
 
Tabular Data for January 22, 2018
Time Temperature Dew Point Pressure Wind Wind Speed Wind Gust Humidity Rainfall Rate (Hourly) solar Conditions
TemperatureF °F DewpointF °F PressureIn in Calm     Humidity% HourlyPrecipIn in SolarRadiationWatts/m^2 W/m2 Conditions
00:03 60.1 °F 58.9 °F 30.17 in Calm     96% 0.00 in 0.0 W/m2 CLR
00:08 60.1 °F 58.9 °F 30.17 in Calm     96% 0.00 in 0.0 W/m2 CLR
00:13 60.1 °F 58.9 °F 30.17 in Calm     96% 0.00 in 0.0 W/m2 CLR
00:18 60.1 °F 58.9 °F 30.17 in Calm     96% 0.00 in 0.0 W/m2 CLR
00:23 60.1 °F 58.9 °F 30.17 in Calm     96% 0.00 in 0.0 W/m2 CLR
00:33 60.1 °F 58.9 °F 30.17 in Calm     96% 0.00 in 0.0 W/m2 CLR
00:38 60.1 °F 58.9 °F 30.17 in Calm     96% 0.00 in 0.0 W/m2 CLR
00:43 60.1 °F 58.9 °F 30.17 in Calm     96% 0.00 in 0.0 W/m2 CLR
00:48 60.1 °F 58.9 °F 30.17 in Calm     96% 0.00 in 0.0 W/m2 CLR
00:53 60.1 °F 58.9 °F 30.17 in Calm     96% 0.00 in 0.0 W/m2 CLR
00:58 60.1 °F 58.9 °F 30.17 in Calm     96% 0.00 in 0.0 W/m2 CLR
01:03 60.1 °F 60.1 °F 30.16 in Calm     100% 0.00 in 0.0 W/m2 CLR
01:08 60.1 °F 60.1 °F 30.16 in Calm     100% 0.00 in 0.0 W/m2 CLR
01:13 60.1 °F 60.1 °F 30.16 in Calm     100% 0.00 in 0.0 W/m2 CLR
01:18 60.1 °F 60.1 °F 30.16 in Calm     100% 0.00 in 0.0 W/m2 CLR
01:23 60.1 °F 60.1 °F 30.16 in Calm     100% 0.00 in 0.0 W/m2 CLR
01:33 60.1 °F 60.1 °F 30.16 in Calm     100% 0.00 in 0.0 W/m2 CLR
01:38 60.1 °F 60.1 °F 30.16 in Calm     100% 0.00 in 0.0 W/m2 CLR
01:53 60.1 °F 60.1 °F 30.16 in Calm     100% 0.00 in 0.0 W/m2 CLR
01:58 60.1 °F 60.1 °F 30.16 in Calm     100% 0.00 in 0.0 W/m2 CLR
02:03 59.0 °F 57.9 °F 30.15 in Calm     96% 0.00 in 0.0 W/m2 CLR
02:08 59.0 °F 57.9 °F 30.15 in Calm     96% 0.00 in 0.0 W/m2 CLR
02:13 59.0 °F 57.9 °F 30.15 in Calm     96% 0.00 in 0.0 W/m2 CLR
02:18 59.0 °F 57.9 °F 30.15 in Calm     96% 0.00 in 0.0 W/m2 CLR
02:23 59.0 °F 57.9 °F 30.15 in Calm     96% 0.00 in 0.0 W/m2 CLR
02:28 59.0 °F 57.9 °F 30.15 in Calm     96% 0.00 in 0.0 W/m2 CLR
02:33 59.0 °F 57.9 °F 30.15 in Calm     96% 0.00 in 0.0 W/m2 CLR
02:38 59.0 °F 57.9 °F 30.15 in Calm     96% 0.00 in 0.0 W/m2 CLR
02:43 59.0 °F 57.9 °F 30.15 in Calm     96% 0.00 in 0.0 W/m2 CLR
02:48 59.0 °F 57.9 °F 30.15 in Calm     96% 0.00 in 0.0 W/m2 BKN
02:53 59.0 °F 57.9 °F 30.15 in Calm     96% 0.00 in 0.0 W/m2 BKN
02:58 59.0 °F 57.9 °F 30.15 in Calm     96% 0.00 in 0.0 W/m2 BKN
03:08 57.0 °F 57.0 °F 30.13 in Calm     100% 0.00 in 0.0 W/m2 SCT
03:13 57.0 °F 57.0 °F 30.13 in Calm     100% 0.00 in 0.0 W/m2 SCT
03:18 57.0 °F 57.0 °F 30.13 in Calm     100% 0.00 in 0.0 W/m2 SCT
03:23 57.0 °F 57.0 °F 30.13 in Calm     100% 0.00 in 0.0 W/m2 SCT
03:28 57.0 °F 57.0 °F 30.13 in Calm     100% 0.00 in 0.0 W/m2 SCT
03:38 57.0 °F 57.0 °F 30.13 in Calm     100% 0.00 in 0.0 W/m2 SCT
03:43 57.0 °F 57.0 °F 30.13 in Calm     100% 0.00 in 0.0 W/m2 SCT
03:48 57.0 °F 57.0 °F 30.13 in Calm     100% 0.00 in 0.0 W/m2 SCT
03:53 57.0 °F 57.0 °F 30.13 in Calm     100% 0.00 in 0.0 W/m2 SCT
03:58 57.0 °F 57.0 °F 30.13 in Calm     100% 0.00 in 0.0 W/m2 SCT
04:03 57.9 °F 57.9 °F 30.13 in Calm     100% 0.00 in 0.0 W/m2 CLR
04:13 57.9 °F 57.9 °F 30.13 in Calm     100% 0.00 in 0.0 W/m2 CLR
04:18 57.9 °F 57.9 °F 30.13 in Calm     100% 0.00 in 0.0 W/m2 CLR
04:28 57.9 °F 57.9 °F 30.13 in Calm     100% 0.00 in 0.0 W/m2 CLR
04:38 57.9 °F 57.9 °F 30.13 in Calm     100% 0.00 in 0.0 W/m2 BKN
04:48 57.9 °F 57.9 °F 30.13 in Calm     100% 0.00 in 0.0 W/m2 OVC
04:58 57.9 °F 57.9 °F 30.13 in Calm     100% 0.00 in 0.0 W/m2 OVC
05:03 57.0 °F 57.0 °F 30.12 in Calm     100% 0.00 in 0.0 W/m2 OVC
05:08 57.0 °F 57.0 °F 30.12 in Calm     100% 0.00 in 0.0 W/m2 OVC
05:13 57.0 °F 57.0 °F 30.12 in Calm     100% 0.00 in 0.0 W/m2 OVC
05:18 57.0 °F 57.0 °F 30.12 in Calm     100% 0.00 in 0.0 W/m2 OVC
05:23 57.0 °F 57.0 °F 30.12 in Calm     100% 0.00 in 0.0 W/m2 OVC
05:28 57.0 °F 57.0 °F 30.12 in Calm     100% 0.00 in 0.0 W/m2 OVC
05:38 57.0 °F 57.0 °F 30.12 in Calm     100% 0.00 in 0.0 W/m2 OVC
05:43 57.0 °F 57.0 °F 30.12 in Calm     100% 0.00 in 0.0 W/m2 OVC
05:48 57.0 °F 57.0 °F 30.12 in Calm     100% 0.00 in 0.0 W/m2 BKN
05:53 57.0 °F 57.0 °F 30.12 in Calm     100% 0.00 in 0.0 W/m2 BKN
05:58 57.0 °F 57.0 °F 30.12 in Calm     100% 0.00 in 0.0 W/m2 BKN
06:03 57.9 °F 57.9 °F 30.13 in Calm     100% 0.00 in 0.0 W/m2 OVC
06:13 57.9 °F 57.9 °F 30.13 in Calm     100% 0.00 in 0.0 W/m2 OVC
06:23 57.9 °F 57.9 °F 30.13 in Calm     100% 0.00 in 0.0 W/m2 OVC
06:33 59.0 °F 59.0 °F 30.13 in Calm     100% 0.00 in 0.0 W/m2
06:38 59.0 °F 59.0 °F 30.13 in Calm     100% 0.00 in 0.0 W/m2
06:43 59.0 °F 59.0 °F 30.13 in Calm     100% 0.00 in 0.0 W/m2
06:48 59.0 °F 59.0 °F 30.13 in Calm     100% 0.00 in 0.0 W/m2
06:53 59.0 °F 59.0 °F 30.13 in Calm     100% 0.00 in 0.0 W/m2
06:58 59.0 °F 59.0 °F 30.13 in Calm     100% 0.00 in 0.0 W/m2
07:03 59.0 °F 59.0 °F 30.14 in Calm     100% 0.00 in 0.0 W/m2
07:13 59.0 °F 59.0 °F 30.14 in Calm     100% 0.00 in 0.0 W/m2 OVC
07:18 57.0 °F 57.0 °F 30.14 in Calm     100% 0.00 in 0.0 W/m2 OVC
07:23 57.0 °F 57.0 °F 30.14 in Calm     100% 0.00 in 0.0 W/m2 OVC
07:28 57.0 °F 57.0 °F 30.14 in Calm     100% 0.00 in 0.0 W/m2 OVC
07:33 55.9 °F 55.9 °F 30.14 in Calm     100% 0.00 in 0.0 W/m2 OVC
07:38 55.9 °F 55.9 °F 30.14 in Calm     100% 0.00 in 0.0 W/m2 OVC
07:48 55.9 °F 55.9 °F 30.14 in Calm     100% 0.00 in 0.0 W/m2 OVC
07:53 55.9 °F 55.9 °F 30.14 in Calm     100% 0.00 in 0.0 W/m2 OVC
08:03 59.0 °F 59.0 °F 30.15 in Calm     100% 0.00 in 0.0 W/m2 OVC
08:08 59.0 °F 59.0 °F 30.15 in Calm     100% 0.00 in 0.0 W/m2 OVC
08:13 59.0 °F 59.0 °F 30.15 in Calm     100% 0.00 in 0.0 W/m2 OVC
08:18 59.0 °F 59.0 °F 30.15 in Calm     100% 0.00 in 0.0 W/m2 OVC
08:23 59.0 °F 59.0 °F 30.15 in Calm     100% 0.00 in 0.0 W/m2 OVC
08:28 59.0 °F 59.0 °F 30.15 in Calm     100% 0.00 in 0.0 W/m2 OVC
08:33 59.0 °F 59.0 °F 30.15 in Calm     100% 0.00 in 0.0 W/m2 BKN
08:38 59.0 °F 59.0 °F 30.15 in Calm     100% 0.00 in 0.0 W/m2 BKN
08:43 59.0 °F 59.0 °F 30.15 in Calm     100% 0.00 in 0.0 W/m2 BKN
08:48 59.0 °F 59.0 °F 30.15 in Calm     100% 0.00 in 0.0 W/m2 SCT
08:53 59.0 °F 59.0 °F 30.15 in Calm     100% 0.00 in 0.0 W/m2 SCT
08:58 59.0 °F 59.0 °F 30.15 in Calm     100% 0.00 in 0.0 W/m2 SCT
09:03 64.9 °F 64.9 °F 30.15 in Calm     100% 0.00 in 0.0 W/m2 CLR
09:08 64.9 °F 64.9 °F 30.15 in Calm     100% 0.00 in 0.0 W/m2 CLR
09:13 64.9 °F 64.9 °F 30.15 in Calm     100% 0.00 in 0.0 W/m2 CLR
09:18 64.9 °F 64.9 °F 30.15 in Calm     100% 0.00 in 0.0 W/m2 CLR
09:23 64.9 °F 64.9 °F 30.15 in Calm     100% 0.00 in 0.0 W/m2 CLR
09:38 64.9 °F 64.9 °F 30.15 in Calm     100% 0.00 in 0.0 W/m2 CLR
09:43 64.9 °F 64.9 °F 30.15 in Calm     100% 0.00 in 0.0 W/m2 CLR
09:48 64.9 °F 64.9 °F 30.15 in Calm     100% 0.00 in 0.0 W/m2 CLR
09:53 64.9 °F 64.9 °F 30.15 in Calm     100% 0.00 in 0.0 W/m2 CLR
09:58 64.9 °F 64.9 °F 30.15 in Calm     100% 0.00 in 0.0 W/m2 CLR
10:03 72.0 °F 64.7 °F 30.16 in Calm     78% 0.00 in 0.0 W/m2 CLR
10:08 72.0 °F 64.7 °F 30.16 in Calm     78% 0.00 in 0.0 W/m2 CLR
10:13 72.0 °F 64.7 °F 30.16 in Calm     78% 0.00 in 0.0 W/m2 CLR
10:18 72.0 °F 64.7 °F 30.16 in Calm     78% 0.00 in 0.0 W/m2 CLR
10:23 72.0 °F 64.7 °F 30.16 in Calm     78% 0.00 in 0.0 W/m2 CLR
10:28 72.0 °F 64.7 °F 30.16 in Calm     78% 0.00 in 0.0 W/m2 CLR
10:33 72.0 °F 64.7 °F 30.16 in Calm     78% 0.00 in 0.0 W/m2 CLR
10:38 72.0 °F 64.7 °F 30.16 in Calm     78% 0.00 in 0.0 W/m2 CLR
10:43 72.0 °F 64.7 °F 30.16 in Calm     78% 0.00 in 0.0 W/m2 CLR
10:48 72.0 °F 64.7 °F 30.16 in Calm     78% 0.00 in 0.0 W/m2 CLR
10:53 72.0 °F 64.7 °F 30.16 in Calm     78% 0.00 in 0.0 W/m2 CLR
10:58 72.0 °F 64.7 °F 30.16 in Calm     78% 0.00 in 0.0 W/m2 CLR
11:03 75.9 °F 64.6 °F 30.16 in Calm     68% 0.00 in 0.0 W/m2 CLR
11:08 75.9 °F 64.6 °F 30.16 in Calm     68% 0.00 in 0.0 W/m2 CLR
11:13 75.9 °F 64.6 °F 30.16 in Calm     68% 0.00 in 0.0 W/m2 CLR
11:18 75.9 °F 64.6 °F 30.16 in Calm     68% 0.00 in 0.0 W/m2 CLR
11:23 75.9 °F 64.6 °F 30.16 in Calm     68% 0.00 in 0.0 W/m2 CLR
11:28 75.9 °F 64.6 °F 30.16 in Calm     68% 0.00 in 0.0 W/m2 CLR
11:33 77.0 °F 63.9 °F 30.15 in Calm     64% 0.00 in 0.0 W/m2 CLR
11:38 77.0 °F 63.9 °F 30.15 in Calm     64% 0.00 in 0.0 W/m2 CLR
11:43 77.0 °F 63.9 °F 30.15 in Calm     64% 0.00 in 0.0 W/m2 CLR
11:48 77.0 °F 63.9 °F 30.14 in Calm     64% 0.00 in 0.0 W/m2 CLR
11:53 77.0 °F 63.9 °F 30.14 in Calm     64% 0.00 in 0.0 W/m2 CLR
11:58 77.0 °F 63.9 °F 30.14 in Calm     64% 0.00 in 0.0 W/m2 CLR
12:03 77.0 °F 62.5 °F 30.13 in Calm     61% 0.00 in 0.0 W/m2 FEW
12:08 77.0 °F 62.5 °F 30.13 in Calm     61% 0.00 in 0.0 W/m2 FEW
12:13 77.0 °F 62.5 °F 30.13 in Calm     61% 0.00 in 0.0 W/m2 FEW
12:18 77.0 °F 62.5 °F 30.13 in Calm     61% 0.00 in 0.0 W/m2 FEW
12:23 77.0 °F 62.5 °F 30.13 in Calm     61% 0.00 in 0.0 W/m2 FEW
12:28 77.0 °F 62.5 °F 30.13 in Calm     61% 0.00 in 0.0 W/m2 FEW
12:33 77.0 °F 62.5 °F 30.13 in Calm     61% 0.00 in 0.0 W/m2 FEW
12:38 77.0 °F 62.5 °F 30.13 in Calm     61% 0.00 in 0.0 W/m2 FEW
12:43 77.0 °F 62.5 °F 30.13 in Calm     61% 0.00 in 0.0 W/m2 FEW
12:48 77.0 °F 62.5 °F 30.13 in Calm     61% 0.00 in 0.0 W/m2 FEW
12:53 77.0 °F 62.5 °F 30.13 in Calm     61% 0.00 in 0.0 W/m2 FEW
12:58 77.0 °F 62.5 °F 30.13 in Calm     61% 0.00 in 0.0 W/m2 FEW
13:03 81.0 °F 62.7 °F 30.09 in Calm     54% 0.00 in 0.0 W/m2 SCT
13:08 81.0 °F 62.7 °F 30.09 in Calm     54% 0.00 in 0.0 W/m2 SCT
13:13 81.0 °F 62.7 °F 30.09 in Calm     54% 0.00 in 0.0 W/m2 SCT
13:18 81.0 °F 62.7 °F 30.09 in Calm     54% 0.00 in 0.0 W/m2 SCT
13:23 81.0 °F 62.7 °F 30.09 in Calm     54% 0.00 in 0.0 W/m2 SCT
13:28 81.0 °F 62.7 °F 30.09 in Calm     54% 0.00 in 0.0 W/m2 SCT
13:33 81.0 °F 62.7 °F 30.09 in Calm     54% 0.00 in 0.0 W/m2 SCT
13:38 81.0 °F 62.7 °F 30.09 in Calm     54% 0.00 in 0.0 W/m2 SCT
13:43 81.0 °F 62.7 °F 30.09 in Calm     54% 0.00 in 0.0 W/m2 SCT
13:48 81.0 °F 62.7 °F 30.09 in Calm     54% 0.00 in 0.0 W/m2 SCT
13:53 81.0 °F 62.7 °F 30.09 in Calm     54% 0.00 in 0.0 W/m2 SCT
13:58 81.0 °F 62.7 °F 30.09 in Calm     54% 0.00 in 0.0 W/m2 SCT
14:03 80.1 °F 61.9 °F 30.05 in Calm     54% 0.00 in 0.0 W/m2 SCT
14:08 80.1 °F 61.9 °F 30.05 in Calm     54% 0.00 in 0.0 W/m2 SCT
14:13 80.1 °F 61.9 °F 30.05 in Calm     54% 0.00 in 0.0 W/m2 SCT
14:18 80.1 °F 61.9 °F 30.05 in Calm     54% 0.00 in 0.0 W/m2 SCT
14:23 80.1 °F 61.9 °F 30.05 in Calm     54% 0.00 in 0.0 W/m2 SCT
14:28 80.1 °F 61.9 °F 30.05 in Calm     54% 0.00 in 0.0 W/m2 SCT
14:33 80.1 °F 61.9 °F 30.05 in Calm     54% 0.00 in 0.0 W/m2 SCT
14:38 80.1 °F 61.9 °F 30.05 in Calm     54% 0.00 in 0.0 W/m2 SCT
14:43 80.1 °F 61.9 °F 30.05 in Calm     54% 0.00 in 0.0 W/m2 SCT
14:48 80.1 °F 61.9 °F 30.05 in Calm     54% 0.00 in 0.0 W/m2 SCT
14:54 80.1 °F 61.9 °F 30.05 in Calm     54% 0.00 in 0.0 W/m2 SCT
14:58 80.1 °F 61.9 °F 30.05 in Calm     54% 0.00 in 0.0 W/m2 SCT
15:03 81.0 °F 61.7 °F 30.03 in Calm     52% 0.00 in 0.0 W/m2 FEW
15:08 81.0 °F 61.7 °F 30.03 in Calm     52% 0.00 in 0.0 W/m2 FEW
15:13 81.0 °F 61.7 °F 30.03 in Calm     52% 0.00 in 0.0 W/m2 FEW
15:18 81.0 °F 61.7 °F 30.03 in Calm     52% 0.00 in 0.0 W/m2 FEW
15:23 81.0 °F 61.7 °F 30.03 in Calm     52% 0.00 in 0.0 W/m2 FEW
15:28 81.0 °F 61.7 °F 30.03 in Calm     52% 0.00 in 0.0 W/m2 FEW
15:33 81.0 °F 61.7 °F 30.03 in Calm     52% 0.00 in 0.0 W/m2 FEW
15:38 81.0 °F 61.7 °F 30.03 in Calm     52% 0.00 in 0.0 W/m2 FEW
15:43 81.0 °F 61.7 °F 30.03 in Calm     52% 0.00 in 0.0 W/m2 FEW
15:49 81.0 °F 61.7 °F 30.03 in Calm     52% 0.00 in 0.0 W/m2 FEW
15:54 81.0 °F 61.7 °F 30.03 in Calm     52% 0.00 in 0.0 W/m2 FEW
15:59 81.0 °F 61.7 °F 30.03 in Calm     52% 0.00 in 0.0 W/m2 FEW
16:04 81.0 °F 61.7 °F 30.03 in Calm     52% 0.00 in 0.0 W/m2 BKN
16:09 81.0 °F 61.7 °F 30.03 in Calm     52% 0.00 in 0.0 W/m2 BKN
16:14 81.0 °F 61.7 °F 30.03 in Calm     52% 0.00 in 0.0 W/m2 BKN
16:19 81.0 °F 61.7 °F 30.03 in Calm     52% 0.00 in 0.0 W/m2 BKN
16:24 81.0 °F 61.7 °F 30.03 in Calm     52% 0.00 in 0.0 W/m2 BKN
16:29 81.0 °F 61.7 °F 30.03 in Calm     52% 0.00 in 0.0 W/m2 BKN
16:34 81.0 °F 61.7 °F 30.03 in Calm     52% 0.00 in 0.0 W/m2 BKN
16:39 81.0 °F 61.7 °F 30.03 in Calm     52% 0.00 in 0.0 W/m2 BKN
16:44 81.0 °F 61.7 °F 30.03 in Calm     52% 0.00 in 0.0 W/m2 BKN
16:49 81.0 °F 61.7 °F 30.03 in Calm     52% 0.00 in 0.0 W/m2 BKN
16:54 81.0 °F 61.7 °F 30.03 in Calm     52% 0.00 in 0.0 W/m2 BKN
16:59 81.0 °F 61.7 °F 30.03 in Calm     52% 0.00 in 0.0 W/m2 BKN
17:04 77.0 °F 62.5 °F 30.04 in Calm     61% 0.00 in 0.0 W/m2 SCT
17:09 77.0 °F 62.5 °F 30.04 in Calm     61% 0.00 in 0.0 W/m2 SCT
17:14 77.0 °F 62.5 °F 30.04 in Calm     61% 0.00 in 0.0 W/m2 SCT
17:19 77.0 °F 62.5 °F 30.04 in Calm     61% 0.00 in 0.0 W/m2 SCT
17:24 77.0 °F 62.5 °F 30.04 in Calm     61% 0.00 in 0.0 W/m2 SCT
17:29 77.0 °F 62.5 °F 30.04 in Calm     61% 0.00 in 0.0 W/m2 SCT
17:34 77.0 °F 62.5 °F 30.04 in Calm     61% 0.00 in 0.0 W/m2 SCT
17:39 77.0 °F 62.5 °F 30.04 in Calm     61% 0.00 in 0.0 W/m2 SCT
17:44 77.0 °F 62.5 °F 30.04 in Calm     61% 0.00 in 0.0 W/m2 SCT
17:49 77.0 °F 62.5 °F 30.04 in Calm     61% 0.00 in 0.0 W/m2 SCT
17:54 77.0 °F 62.5 °F 30.04 in Calm     61% 0.00 in 0.0 W/m2 SCT
17:59 77.0 °F 62.5 °F 30.04 in Calm     61% 0.00 in 0.0 W/m2 SCT
18:04 73.0 °F 64.6 °F 30.05 in Calm     75% 0.00 in 0.0 W/m2 BKN
18:09 73.0 °F 64.6 °F 30.05 in Calm     75% 0.00 in 0.0 W/m2 BKN
18:14 73.0 °F 64.6 °F 30.05 in Calm     75% 0.00 in 0.0 W/m2 BKN
18:19 73.0 °F 64.6 °F 30.05 in Calm     75% 0.00 in 0.0 W/m2 BKN
18:24 73.0 °F 64.6 °F 30.05 in Calm     75% 0.00 in 0.0 W/m2 BKN
18:29 73.0 °F 64.6 °F 30.05 in Calm     75% 0.00 in 0.0 W/m2 BKN
18:34 73.0 °F 64.6 °F 30.05 in Calm     75% 0.00 in 0.0 W/m2 BKN
18:39 73.0 °F 64.6 °F 30.05 in Calm     75% 0.00 in 0.0 W/m2 BKN
18:44 73.0 °F 64.6 °F 30.05 in Calm     75% 0.00 in 0.0 W/m2 BKN
18:49 73.0 °F 64.6 °F 30.05 in Calm     75% 0.00 in 0.0 W/m2 BKN
18:54 73.0 °F 64.6 °F 30.05 in Calm     75% 0.00 in 0.0 W/m2 BKN
18:59 73.0 °F 64.6 °F 30.05 in Calm     75% 0.00 in 0.0 W/m2 BKN
19:04 72.0 °F 64.7 °F 30.07 in Calm     78% 0.00 in 0.0 W/m2 CLR
19:09 72.0 °F 64.7 °F 30.07 in Calm     78% 0.00 in 0.0 W/m2 CLR
19:14 72.0 °F 64.7 °F 30.07 in Calm     78% 0.00 in 0.0 W/m2 CLR
19:19 72.0 °F 64.7 °F 30.07 in Calm     78% 0.00 in 0.0 W/m2 CLR
19:24 72.0 °F 64.7 °F 30.07 in Calm     78% 0.00 in 0.0 W/m2 CLR
19:29 72.0 °F 64.7 °F 30.07 in Calm     78% 0.00 in 0.0 W/m2 CLR
19:34 72.0 °F 64.7 °F 30.07 in Calm     78% 0.00 in 0.0 W/m2 CLR
19:39 72.0 °F 64.7 °F 30.07 in Calm     78% 0.00 in 0.0 W/m2 CLR
19:49 72.0 °F 64.7 °F 30.07 in Calm     78% 0.00 in 0.0 W/m2 CLR
19:54 72.0 °F 64.7 °F 30.07 in Calm     78% 0.00 in 0.0 W/m2 CLR
19:59 72.0 °F 64.7 °F 30.07 in Calm     78% 0.00 in 0.0 W/m2 CLR
20:09 70.0 °F 64.9 °F 30.07 in Calm     84% 0.00 in 0.0 W/m2 CLR
20:19 70.0 °F 64.9 °F 30.07 in Calm     84% 0.00 in 0.0 W/m2 CLR
20:24 70.0 °F 64.9 °F 30.07 in Calm     84% 0.00 in 0.0 W/m2 CLR
20:34 70.0 °F 64.9 °F 30.07 in Calm     84% 0.00 in 0.0 W/m2 CLR
20:39 70.0 °F 64.9 °F 30.07 in Calm     84% 0.00 in 0.0 W/m2 CLR
20:44 70.0 °F 64.9 °F 30.07 in Calm     84% 0.00 in 0.0 W/m2 CLR
20:49 70.0 °F 64.9 °F 30.07 in Calm     84% 0.00 in 0.0 W/m2 CLR
20:54 70.0 °F 64.9 °F 30.07 in Calm     84% 0.00 in 0.0 W/m2 CLR
20:59 70.0 °F 64.9 °F 30.07 in Calm     84% 0.00 in 0.0 W/m2 CLR
21:09 70.0 °F 65.9 °F 30.08 in Calm     87% 0.00 in 0.0 W/m2 CLR
21:14 70.0 °F 65.9 °F 30.08 in Calm     87% 0.00 in 0.0 W/m2 CLR
21:29 70.0 °F 65.9 °F 30.08 in Calm     87% 0.00 in 0.0 W/m2 CLR
21:34 70.0 °F 65.9 °F 30.08 in Calm     87% 0.00 in 0.0 W/m2 CLR
21:39 70.0 °F 65.9 °F 30.08 in Calm     87% 0.00 in 0.0 W/m2 CLR
21:44 70.0 °F 65.9 °F 30.08 in Calm     87% 0.00 in 0.0 W/m2 CLR
21:49 70.0 °F 65.9 °F 30.08 in Calm     87% 0.00 in 0.0 W/m2 CLR
21:54 70.0 °F 65.9 °F 30.08 in Calm     87% 0.00 in 0.0 W/m2 CLR
21:59 70.0 °F 65.9 °F 30.08 in Calm     87% 0.00 in 0.0 W/m2 CLR
22:04 69.1 °F 65.7 °F 30.07 in Calm     89% 0.00 in 0.0 W/m2 OVC
22:09 69.1 °F 65.7 °F 30.07 in Calm     89% 0.00 in 0.0 W/m2 OVC
22:14 69.1 °F 65.7 °F 30.07 in Calm     89% 0.00 in 0.0 W/m2 OVC
22:19 69.1 °F 65.7 °F 30.07 in Calm     89% 0.00 in 0.0 W/m2 OVC
22:24 69.1 °F 65.7 °F 30.07 in Calm     89% 0.00 in 0.0 W/m2 OVC
22:29 69.1 °F 65.7 °F 30.07 in Calm     89% 0.00 in 0.0 W/m2 OVC
22:39 69.1 °F 65.7 °F 30.07 in Calm     89% 0.00 in 0.0 W/m2 OVC
22:44 69.1 °F 65.7 °F 30.07 in Calm     89% 0.00 in 0.0 W/m2 OVC
22:49 69.1 °F 65.7 °F 30.07 in Calm     89% 0.00 in 0.0 W/m2 OVC
22:54 69.1 °F 65.7 °F 30.07 in Calm     89% 0.00 in 0.0 W/m2 OVC
22:59 69.1 °F 65.7 °F 30.07 in Calm     89% 0.00 in 0.0 W/m2 OVC
23:04 69.1 °F 66.7 °F 30.07 in Calm     92% 0.00 in 0.0 W/m2 BKN
23:09 69.1 °F 66.7 °F 30.07 in Calm     92% 0.00 in 0.0 W/m2 BKN
23:14 69.1 °F 66.7 °F 30.07 in Calm     92% 0.00 in 0.0 W/m2 BKN
23:19 69.1 °F 66.7 °F 30.07 in Calm     92% 0.00 in 0.0 W/m2 BKN
23:24 69.1 °F 66.7 °F 30.07 in Calm     92% 0.00 in 0.0 W/m2 BKN
23:29 69.1 °F 66.7 °F 30.07 in Calm     92% 0.00 in 0.0 W/m2 BKN
23:39 69.1 °F 66.7 °F 30.07 in Calm     92% 0.00 in 0.0 W/m2 BKN
23:44 69.1 °F 66.7 °F 30.07 in Calm     92% 0.00 in 0.0 W/m2 BKN
23:54 69.1 °F 66.7 °F 30.07 in Calm     92% 0.00 in 0.0 W/m2 BKN
23:59 69.1 °F 66.7 °F 30.07 in Calm     92% 0.00 in 0.0 W/m2 BKN
Lake Mary, FL, USA
Compliments of Weather Underground - 1.75 mb